メインページ
METAR-TAF:

METAR-TAF

空港 :

エルドレット, ケニヤ

緯度: 00-32N, 経度: 035-17E, 海抜: 2120m

現時点の気象観測

当レポートは3時間21分前の21:00(UTC)に作成
東/南東の風 5kt
気温 16°C
湿度 55%
気圧 1021 hPa
視程10km以上
高度1900ftの雲はほとんどない, 積乱雲.
高度26000ftの千切れ雲あり

METAR: HKEL 222100Z 12005KT 9999 FEW019CB BKN260 16/07 Q1021

時間: 03:21 (00:21 UTC)

予報

当レポートは7時間21分前の17:00(UTC)に作成
予報は22日の 18時(UTC)から 23日の 18時(UTC)まで有効
の風 5kt
視程10km以上
1,500メートル以下は雲なし、積乱雲なし
23日の 08時(UTC)から 23日の 11時(UTC)まで徐々に
の風 10kt
視程10km以上
高度2600ftの雲はほとんどない
23日の 12時(UTC)から 23日の 23時(UTC)まで一時的に
高度2400ftの雲はほとんどない, 積乱雲.
高度2500ftの雲は散在している

TAF: HKEL 221700Z 2218/2318 10005KT CAVOK BECMG 2308/2311 08010KT 9999 FEW026 TEMPO 2312/2323 FEW024CB SCT025

4,000以上の空港の気象観測と天気予報(METAR報とTAF報)

利用可能な観測所は地図上に黄色い丸と赤い丸で示す。

丸の上にカーソルを重ねると観測所名を参照できる。

次にクリックすると気象観測と天気予報を参照できる。

マップの切り替え:黒色「×」印の緑ボタンをクリックして拡大、「-」印の緑ボタンをクリックして縮小、緑色の三角印をクリックして隣りの地図に切り替え


METAR-TAF: